createdAt,value
2023-01-02T00:01:00.069Z,70.15
2023-01-02T00:03:27.048Z,69.87
2023-01-02T00:05:54.599Z,69.85
2023-01-02T00:08:21.292Z,69.86
2023-01-02T00:10:49.682Z,69.71
2023-01-02T00:13:18.238Z,68.35
2023-01-02T00:15:44.934Z,68.87
2023-01-02T00:18:11.735Z,68.74
2023-01-02T00:20:38.495Z,68.35
2023-01-02T00:23:05.241Z,69.17
2023-01-02T00:25:34.760Z,68.99
2023-01-02T00:28:02.214Z,69.03
2023-01-02T00:30:33.960Z,69.44
2023-01-02T00:33:05.683Z,69.82
2023-01-02T00:35:32.816Z,70.06
2023-01-02T00:37:59.459Z,69.70
2023-01-02T00:40:26.243Z,69.89
2023-01-02T00:42:52.995Z,69.55
2023-01-02T00:45:19.670Z,69.84
2023-01-02T00:47:46.321Z,70.38
2023-01-02T00:50:13.016Z,70.19
2023-01-02T00:52:39.805Z,70.47
2023-01-02T00:55:07.038Z,70.12
2023-01-02T00:57:33.846Z,70.60
2023-01-02T01:00:00.600Z,69.84
2023-01-02T01:02:27.491Z,70.35
2023-01-02T01:04:54.255Z,69.98
2023-01-02T01:07:21.008Z,69.88
2023-01-02T01:09:47.786Z,70.07
2023-01-02T01:12:14.544Z,69.61
2023-01-02T01:14:41.294Z,70.03
2023-01-02T01:17:07.985Z,70.42
2023-01-02T01:19:36.075Z,70.00
2023-01-02T01:22:02.793Z,70.20
2023-01-02T01:24:29.484Z,70.27
2023-01-02T01:26:56.178Z,70.50
2023-01-02T01:29:22.898Z,70.04
2023-01-02T01:31:49.658Z,70.59
2023-01-02T01:34:17.481Z,70.91
2023-01-02T01:36:44.271Z,71.04
2023-01-02T01:39:11.882Z,71.66
2023-01-02T01:41:38.663Z,71.72
2023-01-02T01:44:42.977Z,71.75
2023-01-02T01:47:18.801Z,71.98
2023-01-02T01:49:46.858Z,71.77
2023-01-02T01:52:18.407Z,72.01
2023-01-02T01:54:53.209Z,72.41
2023-01-02T01:57:51.249Z,72.39
2023-01-02T02:00:18.345Z,72.17
2023-01-02T02:02:48.524Z,71.99
2023-01-02T02:05:22.017Z,72.34
2023-01-02T02:08:04.812Z,72.59
2023-01-02T02:10:31.701Z,72.30
2023-01-02T02:12:58.425Z,72.54
2023-01-02T02:15:35.823Z,72.64
2023-01-02T02:18:15.236Z,72.43
2023-01-02T02:20:58.324Z,72.33
2023-01-02T02:23:55.464Z,72.70
2023-01-02T02:26:39.896Z,73.11
2023-01-02T02:29:44.992Z,72.88
2023-01-02T02:32:32.351Z,73.23
2023-01-02T02:35:05.310Z,72.68
2023-01-02T02:37:45.657Z,72.71
2023-01-02T02:40:37.374Z,72.98
2023-01-02T02:43:19.738Z,72.62
2023-01-02T02:46:01.036Z,72.87
2023-01-02T02:48:53.843Z,72.94
2023-01-02T02:51:45.852Z,72.71
2023-01-02T02:54:20.696Z,72.73
2023-01-02T02:56:49.817Z,72.93
2023-01-02T02:59:17.929Z,72.89
2023-01-02T03:01:44.862Z,73.02
2023-01-02T03:04:20.353Z,72.96
2023-01-02T03:07:11.646Z,72.94
2023-01-02T03:09:53.409Z,72.69
2023-01-02T03:12:27.916Z,73.25
2023-01-02T03:15:08.875Z,72.97
2023-01-02T03:17:55.548Z,73.29
2023-01-02T03:20:27.221Z,73.44
2023-01-02T03:23:00.742Z,73.24
2023-01-02T03:25:28.072Z,72.82
2023-01-02T03:27:59.531Z,73.37
2023-01-02T03:30:27.415Z,73.21
2023-01-02T03:33:03.357Z,73.58
2023-01-02T03:35:41.053Z,73.24
2023-01-02T03:38:12.426Z,73.15
2023-01-02T03:40:50.833Z,73.67
2023-01-02T03:43:30.621Z,73.57
2023-01-02T03:46:25.166Z,73.83
2023-01-02T03:48:59.081Z,73.89
2023-01-02T03:51:26.222Z,73.60
2023-01-02T03:53:54.147Z,73.84
2023-01-02T03:56:54.947Z,74.17
2023-01-02T03:59:42.692Z,74.07
2023-01-02T04:02:15.122Z,74.60
2023-01-02T04:04:55.630Z,74.50
2023-01-02T04:07:31.242Z,74.77
2023-01-02T04:10:00.214Z,74.52
2023-01-02T04:12:31.603Z,74.13
2023-01-02T04:15:02.119Z,74.79
2023-01-02T04:17:31.980Z,74.98
2023-01-02T04:20:02.623Z,75.07
2023-01-02T04:22:39.173Z,75.25
2023-01-02T04:25:15.039Z,75.06
2023-01-02T04:28:07.718Z,75.08
2023-01-02T04:30:42.169Z,75.40
2023-01-02T04:33:12.004Z,75.79
2023-01-02T04:35:38.860Z,75.44
2023-01-02T04:38:11.271Z,75.48
2023-01-02T04:40:38.769Z,75.13
2023-01-02T04:43:17.790Z,75.29
2023-01-02T04:45:48.617Z,75.68
2023-01-02T04:48:16.473Z,75.73
2023-01-02T04:50:44.149Z,75.26
2023-01-02T04:53:11.263Z,75.39
2023-01-02T04:55:38.605Z,75.31
2023-01-02T04:58:05.850Z,75.73
2023-01-02T05:00:33.191Z,75.71
2023-01-02T05:03:02.463Z,75.96
2023-01-02T05:05:29.266Z,75.83
2023-01-02T05:07:57.488Z,75.75
2023-01-02T05:10:24.217Z,75.88
2023-01-02T05:12:50.923Z,75.56
2023-01-02T05:15:17.730Z,75.58
2023-01-02T05:17:44.384Z,75.72
2023-01-02T05:20:12.973Z,75.45
2023-01-02T05:23:00.137Z,75.85
2023-01-02T05:25:31.252Z,75.73
2023-01-02T05:27:58.695Z,75.71
2023-01-02T05:30:25.905Z,75.46
2023-01-02T05:32:53.433Z,75.58
2023-01-02T05:35:20.765Z,75.61
2023-01-02T05:37:47.633Z,75.56
2023-01-02T05:40:14.445Z,75.65
2023-01-02T05:42:41.325Z,75.91
2023-01-02T05:45:08.690Z,75.17
2023-01-02T05:47:35.366Z,75.95
2023-01-02T05:50:03.146Z,75.67
2023-01-02T05:52:29.849Z,76.10
2023-01-02T05:54:56.569Z,75.38
2023-01-02T05:57:23.258Z,75.21
2023-01-02T05:59:49.941Z,75.10
2023-01-02T06:02:16.873Z,75.08
2023-01-02T06:04:43.707Z,75.17
2023-01-02T06:07:10.437Z,75.55
2023-01-02T06:09:37.109Z,75.64
2023-01-02T06:12:04.056Z,75.36
2023-01-02T06:14:30.779Z,75.18
2023-01-02T06:16:58.518Z,74.74
2023-01-02T06:19:25.361Z,75.34
2023-01-02T06:21:52.296Z,75.18
2023-01-02T06:24:19.270Z,75.62
2023-01-02T06:26:46.088Z,76.05
2023-01-02T06:29:13.082Z,75.78
2023-01-02T06:31:41.102Z,75.75
2023-01-02T06:34:10.041Z,76.14
2023-01-02T06:36:36.841Z,76.11
2023-01-02T06:39:05.264Z,75.90
2023-01-02T06:41:32.293Z,75.83
2023-01-02T06:43:59.111Z,76.09
2023-01-02T06:46:29.824Z,76.43
2023-01-02T06:48:56.622Z,77.10
2023-01-02T06:51:23.921Z,76.88
2023-01-02T06:53:51.021Z,76.79
2023-01-02T06:56:19.502Z,76.69
2023-01-02T06:58:46.584Z,77.60
2023-01-02T07:01:16.195Z,77.49
2023-01-02T07:03:43.366Z,76.33
2023-01-02T07:06:16.342Z,76.19
2023-01-02T07:08:44.148Z,76.77
2023-01-02T07:11:15.426Z,76.84
2023-01-02T07:13:43.673Z,76.76
2023-01-02T07:16:12.992Z,77.06
2023-01-02T07:18:40.270Z,76.93
2023-01-02T07:21:08.400Z,76.66
2023-01-02T07:23:35.892Z,76.63
2023-01-02T07:26:04.873Z,76.47
2023-01-02T07:28:32.685Z,76.54
2023-01-02T07:31:01.675Z,76.99
2023-01-02T07:33:29.682Z,77.01
2023-01-02T07:36:01.016Z,76.14
2023-01-02T07:38:28.146Z,75.65
2023-01-02T07:40:55.212Z,76.14
2023-01-02T07:43:22.554Z,75.29
2023-01-02T07:45:50.519Z,75.44
2023-01-02T07:48:18.303Z,75.13
2023-01-02T07:50:45.475Z,75.54
2023-01-02T07:53:12.481Z,75.42
2023-01-02T07:55:39.395Z,75.16
2023-01-02T07:58:07.183Z,75.09
2023-01-02T08:00:33.992Z,75.19
2023-01-02T08:03:00.957Z,74.58
2023-01-02T08:05:27.791Z,74.79
2023-01-02T08:07:54.567Z,74.81
2023-01-02T08:10:21.382Z,73.98
2023-01-02T08:12:48.149Z,73.53
2023-01-02T08:15:15.010Z,74.11
2023-01-02T08:17:41.828Z,73.87
2023-01-02T08:20:10.447Z,74.11
2023-01-02T08:22:37.679Z,74.13
2023-01-02T08:25:05.229Z,74.71
2023-01-02T08:27:32.373Z,73.62
2023-01-02T08:29:59.248Z,73.59
2023-01-02T08:32:26.261Z,73.89
2023-01-02T08:34:53.100Z,74.01
2023-01-02T08:37:19.992Z,73.86
2023-01-02T08:39:46.694Z,73.28
2023-01-02T08:42:13.438Z,73.06
2023-01-02T08:44:40.320Z,72.98
2023-01-02T08:47:07.177Z,73.03
2023-01-02T08:49:33.895Z,73.17
2023-01-02T08:52:00.828Z,73.67
2023-01-02T08:54:27.693Z,72.76
2023-01-02T08:56:54.540Z,72.85
2023-01-02T08:59:24.063Z,73.13
2023-01-02T09:01:51.655Z,73.09
2023-01-02T09:04:19.759Z,73.25
2023-01-02T09:06:47.117Z,73.75
2023-01-02T09:09:16.249Z,73.35
2023-01-02T09:11:50.443Z,73.14
2023-01-02T09:14:19.542Z,73.52
2023-01-02T09:16:46.896Z,74.08
2023-01-02T09:19:13.664Z,73.40
2023-01-02T09:21:40.466Z,73.61
2023-01-02T09:24:08.361Z,73.12
2023-01-02T09:26:35.662Z,73.43
2023-01-02T09:29:02.509Z,72.64
2023-01-02T09:31:29.376Z,72.80
2023-01-02T09:33:56.384Z,73.34
2023-01-02T09:36:23.228Z,71.85
2023-01-02T09:39:07.880Z,71.89
2023-01-02T09:41:43.753Z,72.19
2023-01-02T09:44:29.263Z,72.00
2023-01-02T09:47:03.748Z,72.48
2023-01-02T09:49:42.287Z,72.41
2023-01-02T09:52:15.748Z,72.20
2023-01-02T09:54:42.640Z,71.76
2023-01-02T09:57:27.734Z,71.94
2023-01-02T10:00:05.042Z,72.27
2023-01-02T10:02:43.267Z,71.95
2023-01-02T10:05:42.548Z,72.12
2023-01-02T10:08:32.201Z,72.21
2023-01-02T10:11:16.035Z,72.20
2023-01-02T10:14:18.149Z,72.19
2023-01-02T10:16:44.467Z,72.34
2023-01-02T10:19:23.732Z,71.94
2023-01-02T10:21:57.042Z,72.96
2023-01-02T10:24:37.786Z,73.23
2023-01-02T10:27:11.676Z,72.60
2023-01-02T10:29:46.349Z,73.04
2023-01-02T10:32:17.500Z,73.21
2023-01-02T10:34:56.332Z,72.75
2023-01-02T10:37:23.168Z,71.80
2023-01-02T10:39:50.728Z,72.88
2023-01-02T10:42:17.743Z,71.97
2023-01-02T10:44:46.561Z,72.79
2023-01-02T10:47:28.241Z,72.60
2023-01-02T10:49:56.749Z,72.14
2023-01-02T10:52:34.157Z,72.49
2023-01-02T10:55:03.129Z,72.54
2023-01-02T10:57:51.073Z,72.79
2023-01-02T11:00:20.185Z,72.36
2023-01-02T11:02:55.744Z,72.64
2023-01-02T11:05:29.994Z,72.19
2023-01-02T11:07:57.959Z,73.00
2023-01-02T11:10:34.977Z,72.63
2023-01-02T11:13:03.353Z,73.33
2023-01-02T11:15:34.597Z,72.67
2023-01-02T11:18:16.707Z,73.10
2023-01-02T11:20:50.628Z,73.15
2023-01-02T11:23:17.523Z,73.01
2023-01-02T11:25:44.497Z,73.57
2023-01-02T11:28:22.258Z,73.83
2023-01-02T11:30:55.331Z,74.06
2023-01-02T11:33:27.320Z,73.30
2023-01-02T11:36:18.612Z,73.77
2023-01-02T11:38:48.123Z,73.84
2023-01-02T11:41:46.159Z,73.55
2023-01-02T11:44:38.489Z,73.58
2023-01-02T11:47:10.302Z,74.15
2023-01-02T11:49:45.159Z,74.21
2023-01-02T11:52:19.227Z,73.77
2023-01-02T11:54:54.407Z,74.58
2023-01-02T11:57:41.275Z,74.01
2023-01-02T12:00:18.140Z,74.16
2023-01-02T12:02:51.576Z,74.13
2023-01-02T12:05:42.515Z,74.53
2023-01-02T12:08:41.089Z,74.92
2023-01-02T12:11:28.448Z,74.61
2023-01-02T12:14:01.465Z,75.62
2023-01-02T12:16:49.450Z,75.42
2023-01-02T12:19:29.899Z,75.76
2023-01-02T12:22:15.289Z,76.57
2023-01-02T12:25:06.676Z,76.73
2023-01-02T12:27:58.774Z,76.69
2023-01-02T12:30:25.636Z,76.72
2023-01-02T12:33:19.577Z,76.99
2023-01-02T12:35:49.205Z,77.13
2023-01-02T12:38:45.782Z,76.90
2023-01-02T12:41:35.747Z,76.19
2023-01-02T12:44:37.607Z,75.95
2023-01-02T12:47:31.979Z,76.69
2023-01-02T12:50:46.906Z,76.70
2023-01-02T12:53:40.016Z,76.77
2023-01-02T12:56:38.889Z,77.61
2023-01-02T12:59:23.729Z,77.61
2023-01-02T13:02:03.270Z,78.15
2023-01-02T13:04:42.880Z,77.70
2023-01-02T13:07:35.499Z,77.87
2023-01-02T13:10:04.761Z,77.64
2023-01-02T13:12:34.132Z,78.49
2023-01-02T13:15:08.694Z,78.89
2023-01-02T13:17:43.593Z,79.12
2023-01-02T13:20:33.361Z,79.65
2023-01-02T13:23:34.293Z,79.66
2023-01-02T13:26:06.333Z,79.99
2023-01-02T13:28:37.804Z,79.98
2023-01-02T13:33:55.148Z,79.79
2023-01-02T13:36:36.895Z,80.76
2023-01-02T13:39:16.381Z,80.63
2023-01-02T13:42:16.569Z,81.25
2023-01-02T13:44:50.913Z,81.11
2023-01-02T13:47:27.338Z,81.71
2023-01-02T13:50:27.248Z,81.66
2023-01-02T13:53:02.133Z,81.67
2023-01-02T13:55:56.390Z,81.79
2023-01-02T13:58:26.410Z,81.57
2023-01-02T14:00:56.159Z,82.16
2023-01-02T14:03:23.541Z,82.07
2023-01-02T14:06:04.625Z,82.34
2023-01-02T14:08:39.951Z,82.47
2023-01-02T14:11:09.203Z,82.92
2023-01-02T14:13:42.079Z,83.15
2023-01-02T14:16:43.259Z,82.85
2023-01-02T14:19:12.854Z,82.60
2023-01-02T14:21:53.636Z,82.75
2023-01-02T14:24:33.915Z,83.02
2023-01-02T14:27:00.525Z,83.01
2023-01-02T14:29:29.278Z,83.15
2023-01-02T14:32:09.618Z,82.57
2023-01-02T14:34:42.921Z,82.79
2023-01-02T14:37:11.134Z,82.80
2023-01-02T14:39:38.878Z,82.64
2023-01-02T14:42:37.868Z,82.96
2023-01-02T14:45:13.846Z,82.90
2023-01-02T14:47:54.839Z,82.96
2023-01-02T14:50:26.198Z,83.31
2023-01-02T14:53:06.792Z,83.19
2023-01-02T14:55:41.914Z,83.07
2023-01-02T14:58:29.498Z,82.69
2023-01-02T15:01:04.209Z,82.83
2023-01-02T15:03:40.677Z,83.13
2023-01-02T15:06:27.961Z,83.78
2023-01-02T15:09:03.236Z,84.02
2023-01-02T15:11:48.789Z,84.19
2023-01-02T15:14:23.591Z,84.45
2023-01-02T15:16:59.091Z,84.21
2023-01-02T15:19:29.430Z,84.04
2023-01-02T15:21:56.774Z,83.76
2023-01-02T15:24:30.395Z,83.79
2023-01-02T15:27:31.767Z,84.08
2023-01-02T15:30:01.486Z,84.04
2023-01-02T15:32:33.818Z,84.53
2023-01-02T15:35:21.035Z,84.88
2023-01-02T15:37:49.015Z,84.55
2023-01-02T15:40:24.400Z,85.07
2023-01-02T15:43:12.667Z,85.03
2023-01-02T15:45:49.336Z,85.36
2023-01-02T15:48:16.600Z,85.01
2023-01-02T15:50:52.309Z,85.00
2023-01-02T15:53:34.569Z,85.25
2023-01-02T15:56:01.406Z,85.15
2023-01-02T15:58:31.101Z,85.09
2023-01-02T16:01:09.846Z,85.27
2023-01-02T16:04:02.181Z,85.38
2023-01-02T16:06:45.026Z,85.37
2023-01-02T16:09:22.839Z,86.25
2023-01-02T16:11:53.814Z,86.35
2023-01-02T16:14:41.706Z,86.35
2023-01-02T16:17:28.775Z,86.76
2023-01-02T16:20:01.822Z,87.07
2023-01-02T16:22:43.842Z,86.89
2023-01-02T16:25:19.090Z,87.03
2023-01-02T16:27:56.398Z,86.76
2023-01-02T16:30:41.126Z,87.20
2023-01-02T16:33:24.831Z,86.80
2023-01-02T16:36:00.017Z,86.63
2023-01-02T16:38:28.183Z,87.63
2023-01-02T16:41:05.167Z,87.15
2023-01-02T16:43:36.721Z,87.42
2023-01-02T16:46:13.760Z,88.23
2023-01-02T16:48:42.452Z,88.20
2023-01-02T16:51:09.661Z,87.58
2023-01-02T16:53:37.061Z,87.74
2023-01-02T16:56:04.011Z,87.93
2023-01-02T16:58:30.826Z,88.16
2023-01-02T17:00:58.109Z,87.88
2023-01-02T17:03:27.122Z,88.16
2023-01-02T17:06:02.077Z,87.92
2023-01-02T17:08:32.210Z,88.29
2023-01-02T17:10:59.991Z,88.07
2023-01-02T17:13:28.484Z,87.56
2023-01-02T17:15:56.420Z,88.31
2023-01-02T17:18:25.035Z,88.01
2023-01-02T17:20:51.869Z,87.86
2023-01-02T17:23:20.107Z,88.09
2023-01-02T17:25:47.822Z,88.27
2023-01-02T17:28:15.653Z,88.07
2023-01-02T17:30:44.702Z,88.00
2023-01-02T17:33:12.861Z,88.33
2023-01-02T17:35:39.808Z,88.17
2023-01-02T17:38:07.294Z,87.85
2023-01-02T17:40:34.357Z,88.11
2023-01-02T17:43:01.222Z,87.97
2023-01-02T17:45:29.011Z,87.53
2023-01-02T17:48:04.047Z,87.88
2023-01-02T17:50:34.747Z,88.00
2023-01-02T17:53:01.721Z,87.69
2023-01-02T17:55:28.494Z,87.67
2023-01-02T17:57:55.270Z,88.22
2023-01-02T18:00:23.616Z,88.08
2023-01-02T18:02:52.505Z,87.76
2023-01-02T18:05:20.994Z,87.98
2023-01-02T18:07:47.998Z,88.14
2023-01-02T18:10:19.959Z,87.86
2023-01-02T18:12:49.981Z,88.07
2023-01-02T18:15:19.871Z,88.11
2023-01-02T18:17:47.484Z,87.71
2023-01-02T18:20:18.092Z,87.85
2023-01-02T18:22:49.620Z,88.20
2023-01-02T18:25:27.349Z,88.29
2023-01-02T18:28:01.373Z,88.74
2023-01-02T18:30:28.399Z,88.49
2023-01-02T18:33:12.260Z,88.24
2023-01-02T18:38:34.982Z,88.41
2023-01-02T18:41:22.419Z,88.84
2023-01-02T18:43:51.191Z,88.12
2023-01-02T18:47:02.143Z,88.19
2023-01-02T18:49:28.359Z,88.48
2023-01-02T18:52:10.376Z,88.45
2023-01-02T18:54:41.377Z,88.25
2023-01-02T18:57:22.847Z,88.39
2023-01-02T18:59:52.025Z,88.70
2023-01-02T19:02:39.953Z,88.71
2023-01-02T19:05:18.792Z,88.40
2023-01-02T19:07:45.741Z,88.64
2023-01-02T19:10:40.790Z,88.77
2023-01-02T19:13:22.471Z,88.65
2023-01-02T19:16:05.731Z,88.92
2023-01-02T19:18:41.321Z,88.26
2023-01-02T19:21:33.446Z,88.37
2023-01-02T19:24:22.723Z,87.94
2023-01-02T19:26:52.157Z,87.78
2023-01-02T19:29:23.025Z,87.78
2023-01-02T19:32:11.808Z,87.92
2023-01-02T19:34:50.664Z,88.13
2023-01-02T19:37:39.173Z,87.58
2023-01-02T19:40:14.645Z,87.63
2023-01-02T19:42:45.372Z,87.62
2023-01-02T19:45:26.321Z,88.11
2023-01-02T19:47:53.165Z,88.28
2023-01-02T19:50:22.562Z,88.00
2023-01-02T19:52:50.072Z,88.32
2023-01-02T19:55:18.014Z,88.37
2023-01-02T19:57:46.706Z,88.48
2023-01-02T20:00:15.896Z,88.00
2023-01-02T20:02:45.512Z,87.79
2023-01-02T20:05:20.780Z,88.09
2023-01-02T20:07:48.784Z,88.24
2023-01-02T20:10:15.740Z,88.74
2023-01-02T20:12:42.584Z,88.98
2023-01-02T20:15:20.910Z,89.80
2023-01-02T20:17:48.033Z,90.20
2023-01-02T20:20:17.471Z,89.98
2023-01-02T20:22:44.896Z,90.51
2023-01-02T20:25:15.264Z,91.08
2023-01-02T20:27:41.915Z,91.07
2023-01-02T20:30:09.852Z,90.97
2023-01-02T20:32:36.753Z,92.04
2023-01-02T20:35:03.947Z,91.76
2023-01-02T20:37:31.090Z,92.01
2023-01-02T20:39:58.078Z,91.99
2023-01-02T20:42:24.834Z,91.76
2023-01-02T20:44:52.020Z,92.18
2023-01-02T20:47:19.433Z,92.56
2023-01-02T20:49:46.197Z,92.06
2023-01-02T20:52:13.078Z,92.71
2023-01-02T20:54:40.216Z,92.44
2023-01-02T20:57:06.936Z,92.45
2023-01-02T20:59:33.723Z,92.51
2023-01-02T21:02:00.694Z,92.14
2023-01-02T21:04:34.454Z,92.35
2023-01-02T21:07:04.977Z,92.49
2023-01-02T21:09:31.854Z,91.86
2023-01-02T21:11:58.601Z,92.01
2023-01-02T21:14:25.355Z,92.19
2023-01-02T21:16:52.174Z,92.10
2023-01-02T21:19:18.900Z,92.42
2023-01-02T21:21:46.026Z,92.45
2023-01-02T21:24:12.794Z,92.39
2023-01-02T21:26:39.550Z,92.45
2023-01-02T21:29:06.353Z,92.16
2023-01-02T21:31:33.820Z,92.20
2023-01-02T21:34:00.712Z,92.32
2023-01-02T21:36:27.573Z,92.16
2023-01-02T21:38:54.315Z,92.10
2023-01-02T21:41:39.505Z,92.52
2023-01-02T21:44:06.369Z,92.71
2023-01-02T21:46:33.153Z,92.87
2023-01-02T21:49:00.030Z,93.00
2023-01-02T21:51:32.490Z,93.08
2023-01-02T21:53:59.840Z,92.69
2023-01-02T21:56:26.774Z,92.77
2023-01-02T21:58:54.973Z,92.65
2023-01-02T22:01:21.967Z,92.74
2023-01-02T22:03:48.934Z,92.90
2023-01-02T22:06:18.166Z,92.69
2023-01-02T22:08:44.910Z,92.86
2023-01-02T22:11:30.260Z,93.04
2023-01-02T22:13:56.960Z,92.90
2023-01-02T22:16:23.700Z,93.07
2023-01-02T22:18:50.718Z,92.84
2023-01-02T22:21:17.486Z,92.75
2023-01-02T22:23:44.437Z,92.87
2023-01-02T22:26:11.162Z,92.66
2023-01-02T22:28:38.016Z,92.82
2023-01-02T22:31:06.175Z,92.51
2023-01-02T22:33:33.901Z,93.09
2023-01-02T22:36:00.659Z,93.04
2023-01-02T22:38:27.541Z,92.79
2023-01-02T22:40:55.377Z,92.81
2023-01-02T22:43:24.711Z,92.60
2023-01-02T22:45:53.585Z,93.13
2023-01-02T22:48:27.829Z,92.89
2023-01-02T22:50:57.369Z,92.95
2023-01-02T22:53:32.764Z,93.02
2023-01-02T22:56:01.121Z,93.07
2023-01-02T22:58:28.042Z,93.06
2023-01-02T23:01:07.197Z,92.98
2023-01-02T23:03:39.211Z,92.93
2023-01-02T23:06:06.394Z,93.06
2023-01-02T23:08:33.585Z,93.05
2023-01-02T23:11:01.436Z,93.25
2023-01-02T23:13:28.200Z,92.86
2023-01-02T23:16:13.962Z,92.88
2023-01-02T23:18:59.329Z,93.38
2023-01-02T23:21:27.277Z,93.17
2023-01-02T23:23:54.508Z,93.31
2023-01-02T23:26:23.919Z,93.42
2023-01-02T23:29:07.992Z,93.61
2023-01-02T23:31:38.542Z,93.09
2023-01-02T23:34:05.771Z,93.28
2023-01-02T23:36:32.804Z,93.25
2023-01-02T23:38:59.416Z,93.41
2023-01-02T23:41:26.250Z,93.40
2023-01-02T23:43:53.100Z,93.49
2023-01-02T23:46:19.825Z,93.41
2023-01-02T23:48:48.318Z,93.61
2023-01-02T23:51:15.093Z,93.18
2023-01-02T23:53:41.769Z,93.50
2023-01-02T23:56:19.075Z,93.08
2023-01-02T23:58:47.024Z,93.09
